Time;durP1;ratioP1;P1;durP2;ratioP2;P2;SDS_P1;SDS_P2;PMS_P1;PMS_P2;Temp;Humidity;BMP_temperature;BMP_pressure;BME280_temperature;BME280_humidity;BME280_pressure;Samples;Min_cycle;Max_cycle;Signal;HPM_P1;HPM_P2
2021/04/26 00:00:08;;;;;;;;;;;6.30;66.30;;;;;;5048668;28;20422;-75
2021/04/26 00:02:34;;;;;;;;;;;6.20;66.70;;;;;;5030431;28;19917;-75
2021/04/26 00:05:02;;;;;;;;;;;6.20;66.70;;;;;;5048645;28;19933;-75
2021/04/26 00:07:29;;;;;;;;;;;6.20;66.20;;;;;;5028977;28;19929;-75
2021/04/26 00:09:55;;;;;;;;;;;6.10;66.60;;;;;;5046811;28;19917;-75
2021/04/26 00:12:20;;;;;;;;;;;6.20;66.90;;;;;;5047908;28;19934;-75
2021/04/26 00:14:48;;;;;;;;;;;6.20;66.60;;;;;;5047693;28;20413;-76
2021/04/26 00:17:14;;;;;;;;;;;6.10;66.50;;;;;;5049277;28;19917;-74
2021/04/26 00:19:39;;;;;;;;;;;6.10;66.60;;;;;;5047692;28;19922;-74
2021/04/26 00:22:05;;;;;;;;;;;6.00;66.60;;;;;;5048493;28;19913;-74
2021/04/26 00:24:30;;;;;;;;;;;6.00;67.00;;;;;;5029157;28;19921;-74
2021/04/26 00:26:56;;;;;;;;;;;6.00;66.50;;;;;;5047343;28;20442;-74
2021/04/26 00:29:24;;;;;;;;;;;6.00;66.80;;;;;;5029712;28;20381;-74
2021/04/26 00:31:50;;;;;;;;;;;6.00;67.50;;;;;;5047953;28;19924;-74
2021/04/26 00:34:16;;;;;;;;;;;5.90;67.30;;;;;;5047949;28;19970;-74
2021/04/26 00:36:41;;;;;;;;;;;6.00;67.20;;;;;;5046705;28;19920;-74
2021/04/26 00:39:07;;;;;;;;;;;5.90;67.60;;;;;;5015158;28;19920;-74
2021/04/26 00:41:32;;;;;;;;;;;5.80;68.30;;;;;;5032917;28;19990;-75
2021/04/26 00:43:58;;;;;;;;;;;5.80;68.60;;;;;;5030580;28;20247;-75
2021/04/26 00:46:23;;;;;;;;;;;5.60;69.00;;;;;;5046348;28;19920;-74
2021/04/26 00:48:49;;;;;;;;;;;5.70;68.40;;;;;;5029795;28;20359;-75
2021/04/26 00:51:17;;;;;;;;;;;5.60;68.20;;;;;;5028816;28;19987;-74
2021/04/26 00:53:43;;;;;;;;;;;5.60;68.40;;;;;;5015397;28;19931;-76
2021/04/26 00:56:08;;;;;;;;;;;5.50;68.70;;;;;;5029864;28;19917;-74
2021/04/26 00:58:34;;;;;;;;;;;5.40;69.40;;;;;;5048041;28;19921;-75
2021/04/26 01:00:59;;;;;;;;;;;5.30;69.50;;;;;;5029848;28;19916;-75
2021/04/26 01:03:25;;;;;;;;;;;5.30;69.40;;;;;;5045911;28;19924;-75
2021/04/26 01:05:51;;;;;;;;;;;5.30;69.50;;;;;;5015485;28;19938;-75
2021/04/26 01:08:16;;;;;;;;;;;5.20;70.20;;;;;;5046586;28;19983;-75
2021/04/26 01:10:42;;;;;;;;;;;5.10;70.20;;;;;;5045651;28;19994;-75
2021/04/26 01:13:10;;;;;;;;;;;5.10;70.90;;;;;;5013020;28;20012;-74
2021/04/26 01:15:41;;;;;;;;;;;5.10;71.10;;;;;;5048285;28;19916;-74
2021/04/26 01:18:10;;;;;;;;;;;5.00;70.80;;;;;;5029647;28;19971;-75
2021/04/26 01:20:55;;;;;;;;;;;5.00;71.20;;;;;;5030082;28;20062;-76
2021/04/26 01:23:25;;;;;;;;;;;4.90;71.30;;;;;;5047205;28;19999;-73
2021/04/26 01:25:51;;;;;;;;;;;4.90;71.70;;;;;;5046792;28;19916;-73
2021/04/26 01:28:35;;;;;;;;;;;4.80;72.00;;;;;;5045430;28;19924;-76
2021/04/26 01:31:09;;;;;;;;;;;4.80;71.80;;;;;;5048003;28;19985;-74
2021/04/26 01:33:36;;;;;;;;;;;4.70;72.60;;;;;;5050160;28;19921;-76
2021/04/26 01:36:03;;;;;;;;;;;4.70;72.20;;;;;;5033101;28;19932;-73
2021/04/26 01:38:29;;;;;;;;;;;4.60;72.20;;;;;;5050583;28;21748;-76
2021/04/26 01:40:57;;;;;;;;;;;4.60;72.00;;;;;;5033515;28;20038;-73
2021/04/26 01:43:25;;;;;;;;;;;4.50;72.10;;;;;;5033927;28;19971;-76
2021/04/26 01:45:53;;;;;;;;;;;4.40;73.00;;;;;;5050911;28;19921;-73
2021/04/26 01:48:19;;;;;;;;;;;4.50;73.30;;;;;;5022498;28;20415;-73
2021/04/26 01:50:45;;;;;;;;;;;4.40;73.00;;;;;;5049790;28;19920;-73
2021/04/26 01:53:10;;;;;;;;;;;4.40;73.60;;;;;;5032437;28;20003;-75
2021/04/26 01:55:36;;;;;;;;;;;4.40;74.00;;;;;;5032505;28;19916;-73
2021/04/26 01:58:04;;;;;;;;;;;4.30;74.30;;;;;;5031535;28;19920;-74
2021/04/26 02:00:30;;;;;;;;;;;4.30;74.80;;;;;;5051552;28;19969;-74
2021/04/26 02:02:56;;;;;;;;;;;4.30;73.90;;;;;;5033430;28;20297;-74
2021/04/26 02:05:21;;;;;;;;;;;4.20;75.40;;;;;;5036391;28;19916;-74
2021/04/26 02:07:47;;;;;;;;;;;4.20;74.90;;;;;;5050554;28;19929;-76
2021/04/26 02:10:13;;;;;;;;;;;4.10;75.40;;;;;;5016056;28;20007;-73
2021/04/26 02:12:41;;;;;;;;;;;4.10;76.00;;;;;;5048305;28;20321;-74
2021/04/26 02:15:07;;;;;;;;;;;4.10;75.80;;;;;;5049195;28;20346;-73
2021/04/26 02:17:33;;;;;;;;;;;4.10;75.10;;;;;;5049250;28;20386;-74
2021/04/26 02:19:58;;;;;;;;;;;4.00;75.20;;;;;;5031505;28;19932;-74
2021/04/26 02:22:24;;;;;;;;;;;4.00;74.40;;;;;;5031672;28;20265;-73
2021/04/26 02:24:50;;;;;;;;;;;4.00;75.70;;;;;;5048907;28;19930;-75
2021/04/26 02:27:15;;;;;;;;;;;4.00;75.70;;;;;;5049851;28;20883;-74
2021/04/26 02:29:41;;;;;;;;;;;3.90;76.10;;;;;;5031668;28;20004;-74
2021/04/26 02:32:07;;;;;;;;;;;3.80;76.90;;;;;;5049186;28;20424;-74
2021/04/26 02:34:34;;;;;;;;;;;3.80;76.60;;;;;;5049157;28;20334;-76
2021/04/26 02:37:12;;;;;;;;;;;3.70;76.00;;;;;;5051093;28;19920;-74
2021/04/26 02:39:37;;;;;;;;;;;3.70;76.40;;;;;;5048557;28;20230;-73
2021/04/26 02:42:03;;;;;;;;;;;3.70;75.60;;;;;;5048708;28;19927;-74
2021/04/26 02:44:31;;;;;;;;;;;3.60;76.90;;;;;;5048333;28;19927;-76
2021/04/26 02:46:58;;;;;;;;;;;3.60;76.40;;;;;;5035157;28;20042;-74
2021/04/26 02:49:24;;;;;;;;;;;3.60;76.80;;;;;;5050358;28;21774;-74
2021/04/26 02:51:49;;;;;;;;;;;3.50;77.10;;;;;;5031601;28;19925;-74
2021/04/26 02:54:15;;;;;;;;;;;3.50;78.90;;;;;;5032158;28;20368;-74
2021/04/26 02:56:41;;;;;;;;;;;3.50;77.80;;;;;;5049034;28;19974;-74
2021/04/26 02:59:07;;;;;;;;;;;3.40;77.50;;;;;;5031577;28;19921;-75
2021/04/26 03:01:35;;;;;;;;;;;3.40;77.30;;;;;;5031069;28;19917;-74
2021/04/26 03:04:02;;;;;;;;;;;3.30;78.20;;;;;;5047782;28;20034;-75
2021/04/26 03:06:27;;;;;;;;;;;3.30;77.30;;;;;;5029944;28;19921;-73
2021/04/26 03:08:53;;;;;;;;;;;3.20;77.80;;;;;;5014151;28;19924;-75
2021/04/26 03:11:18;;;;;;;;;;;3.20;78.50;;;;;;5031027;28;19924;-75
2021/04/26 03:13:46;;;;;;;;;;;3.20;78.70;;;;;;5048954;28;19973;-74
2021/04/26 03:16:12;;;;;;;;;;;3.20;78.60;;;;;;5030856;28;19927;-74
2021/04/26 03:18:38;;;;;;;;;;;3.20;78.80;;;;;;5030436;28;19917;-74
2021/04/26 03:21:06;;;;;;;;;;;3.10;79.10;;;;;;5029179;28;19982;-74
2021/04/26 03:23:36;;;;;;;;;;;3.10;79.10;;;;;;5013536;28;19932;-75
2021/04/26 03:26:07;;;;;;;;;;;3.00;78.90;;;;;;5049469;28;19917;-75
2021/04/26 03:28:33;;;;;;;;;;;3.00;79.00;;;;;;5049294;28;19924;-75
2021/04/26 03:30:59;;;;;;;;;;;2.90;79.20;;;;;;5049128;28;19924;-75
2021/04/26 03:33:25;;;;;;;;;;;2.90;79.90;;;;;;5047179;28;19932;-75
2021/04/26 03:35:53;;;;;;;;;;;2.90;78.50;;;;;;5030498;28;19994;-75
2021/04/26 03:38:18;;;;;;;;;;;2.80;80.00;;;;;;5030473;28;19936;-74
2021/04/26 03:40:44;;;;;;;;;;;2.80;79.90;;;;;;5030324;28;19938;-74
2021/04/26 03:43:11;;;;;;;;;;;2.80;80.00;;;;;;5030934;28;20011;-74
2021/04/26 03:45:39;;;;;;;;;;;2.60;82.60;;;;;;5031576;28;20321;-74
2021/04/26 03:48:04;;;;;;;;;;;2.60;81.70;;;;;;5016344;28;20350;-74
2021/04/26 03:50:30;;;;;;;;;;;2.60;81.00;;;;;;5049582;28;19917;-74
2021/04/26 03:52:55;;;;;;;;;;;2.60;80.00;;;;;;5047576;28;19931;-74
2021/04/26 03:55:21;;;;;;;;;;;2.50;81.40;;;;;;5048140;28;19928;-74
2021/04/26 03:57:47;;;;;;;;;;;2.50;81.10;;;;;;5028546;28;20011;-74
2021/04/26 04:00:13;;;;;;;;;;;2.50;81.60;;;;;;5047157;28;19964;-74
2021/04/26 04:02:38;;;;;;;;;;;2.50;81.80;;;;;;5048010;28;19999;-74
2021/04/26 04:05:07;;;;;;;;;;;2.40;82.60;;;;;;5048749;28;19960;-74
2021/04/26 04:07:36;;;;;;;;;;;2.50;82.40;;;;;;5030913;28;19950;-74
2021/04/26 04:10:05;;;;;;;;;;;2.50;82.00;;;;;;5030727;28;19944;-74
2021/04/26 04:12:35;;;;;;;;;;;2.40;82.50;;;;;;5013014;28;19920;-74
2021/04/26 04:15:01;;;;;;;;;;;2.40;83.30;;;;;;5048220;28;19923;-75
2021/04/26 04:17:26;;;;;;;;;;;2.30;83.00;;;;;;5011165;28;19916;-74
2021/04/26 04:19:54;;;;;;;;;;;2.30;84.00;;;;;;5029406;28;20073;-74
2021/04/26 04:22:20;;;;;;;;;;;2.30;84.10;;;;;;5015813;28;19921;-74
2021/04/26 04:24:45;;;;;;;;;;;2.30;83.50;;;;;;5047163;28;19990;-74
2021/04/26 04:27:11;;;;;;;;;;;2.20;83.70;;;;;;5047447;28;20354;-75
2021/04/26 04:29:36;;;;;;;;;;;2.30;84.00;;;;;;5047853;28;19916;-74
2021/04/26 04:32:04;;;;;;;;;;;2.20;84.60;;;;;;5048364;28;19925;-74
2021/04/26 04:34:30;;;;;;;;;;;2.30;83.50;;;;;;5047217;28;20007;-74
2021/04/26 04:36:56;;;;;;;;;;;2.30;84.50;;;;;;5047032;28;20005;-75
2021/04/26 04:39:22;;;;;;;;;;;2.30;85.90;;;;;;5028124;28;20337;-74
2021/04/26 04:41:47;;;;;;;;;;;2.20;85.10;;;;;;5015348;28;20353;-74
2021/04/26 04:44:15;;;;;;;;;;;2.30;84.00;;;;;;5047748;28;19917;-75
2021/04/26 04:46:43;;;;;;;;;;;2.30;83.40;;;;;;5047596;28;20271;-75
2021/04/26 04:49:08;;;;;;;;;;;2.30;85.30;;;;;;5029581;28;19920;-75
2021/04/26 04:51:34;;;;;;;;;;;2.40;83.10;;;;;;5029778;28;19970;-75
2021/04/26 04:53:59;;;;;;;;;;;2.40;83.50;;;;;;5013735;28;20015;-75
2021/04/26 04:56:25;;;;;;;;;;;2.40;82.00;;;;;;5048451;28;19928;-75
2021/04/26 04:58:51;;;;;;;;;;;2.40;83.20;;;;;;5047375;28;19974;-74
2021/04/26 05:01:16;;;;;;;;;;;2.50;83.50;;;;;;5029396;28;19957;-75
2021/04/26 05:03:42;;;;;;;;;;;2.50;82.20;;;;;;5029538;28;19968;-75
2021/04/26 05:06:08;;;;;;;;;;;2.60;81.50;;;;;;5048414;28;19948;-75
2021/04/26 05:08:33;;;;;;;;;;;2.60;81.10;;;;;;5050927;28;19925;-75
2021/04/26 05:11:01;;;;;;;;;;;2.70;79.80;;;;;;5032360;28;19925;-75
2021/04/26 05:13:27;;;;;;;;;;;2.80;77.60;;;;;;5032100;28;20130;-75
2021/04/26 05:15:55;;;;;;;;;;;2.90;78.00;;;;;;5033303;28;19916;-75
2021/04/26 05:18:20;;;;;;;;;;;3.00;77.50;;;;;;5034535;28;19925;-75
2021/04/26 05:20:46;;;;;;;;;;;3.10;76.70;;;;;;5051092;28;19917;-75
2021/04/26 05:23:11;;;;;;;;;;;3.20;76.10;;;;;;5052443;28;19920;-75
2021/04/26 05:25:39;;;;;;;;;;;3.30;76.10;;;;;;5052467;28;19928;-75
2021/04/26 05:28:05;;;;;;;;;;;3.40;74.80;;;;;;5036290;28;19927;-75
2021/04/26 05:30:31;;;;;;;;;;;3.50;74.40;;;;;;5050503;28;19921;-75
2021/04/26 05:32:56;;;;;;;;;;;3.60;74.20;;;;;;5050587;28;20619;-75
2021/04/26 05:35:22;;;;;;;;;;;3.70;75.10;;;;;;5050567;28;19917;-74
2021/04/26 05:37:47;;;;;;;;;;;3.70;74.10;;;;;;5051369;28;19980;-74
2021/04/26 05:40:13;;;;;;;;;;;3.80;73.50;;;;;;5035242;28;19931;-75
2021/04/26 05:42:39;;;;;;;;;;;4.00;70.70;;;;;;5032790;28;20425;-74
2021/04/26 05:45:05;;;;;;;;;;;4.10;73.10;;;;;;5051404;28;19916;-74
2021/04/26 05:47:30;;;;;;;;;;;4.20;70.60;;;;;;5050951;28;19927;-74
2021/04/26 05:49:58;;;;;;;;;;;4.30;71.90;;;;;;5050591;28;20563;-74
2021/04/26 05:52:26;;;;;;;;;;;4.40;69.10;;;;;;5017121;28;19974;-74
2021/04/26 05:54:52;;;;;;;;;;;4.50;69.70;;;;;;5032916;28;20023;-74
2021/04/26 05:57:17;;;;;;;;;;;4.50;69.20;;;;;;5049962;28;20516;-75
2021/04/26 05:59:43;;;;;;;;;;;4.60;70.40;;;;;;5050263;28;20023;-75
2021/04/26 06:02:10;;;;;;;;;;;4.60;70.50;;;;;;5032753;28;19916;-75
2021/04/26 06:04:36;;;;;;;;;;;4.70;68.10;;;;;;5050134;28;19928;-75
2021/04/26 06:07:01;;;;;;;;;;;4.70;69.60;;;;;;5050453;28;19928;-75
2021/04/26 06:09:27;;;;;;;;;;;4.80;69.30;;;;;;5049679;28;20008;-74
2021/04/26 06:11:55;;;;;;;;;;;4.80;70.30;;;;;;5050125;28;19924;-74
2021/04/26 06:14:20;;;;;;;;;;;4.90;71.20;;;;;;5049379;28;20011;-74
2021/04/26 06:16:48;;;;;;;;;;;5.00;69.50;;;;;;5049735;28;19925;-74
2021/04/26 06:19:13;;;;;;;;;;;5.10;69.90;;;;;;5031750;28;19924;-74
2021/04/26 06:21:39;;;;;;;;;;;5.10;69.60;;;;;;5030865;28;19947;-75
2021/04/26 06:24:07;;;;;;;;;;;5.20;70.30;;;;;;5050584;28;20376;-78
2021/04/26 06:26:33;;;;;;;;;;;5.20;68.20;;;;;;5049303;28;19917;-74
2021/04/26 06:28:59;;;;;;;;;;;5.30;69.50;;;;;;5046589;28;20263;-76
2021/04/26 06:31:24;;;;;;;;;;;5.40;69.40;;;;;;5047841;28;20369;-74
2021/04/26 06:33:50;;;;;;;;;;;5.40;69.70;;;;;;5048180;28;19961;-75
2021/04/26 06:36:15;;;;;;;;;;;5.50;68.30;;;;;;5029146;28;19924;-77
2021/04/26 06:38:43;;;;;;;;;;;5.50;69.20;;;;;;5049014;28;20353;-78
2021/04/26 06:41:08;;;;;;;;;;;5.60;67.70;;;;;;5046470;28;19927;-76
2021/04/26 06:43:34;;;;;;;;;;;5.60;68.10;;;;;;5044886;28;19917;-75
2021/04/26 06:45:59;;;;;;;;;;;5.70;69.70;;;;;;5028481;28;19932;-75
2021/04/26 06:48:27;;;;;;;;;;;5.70;68.90;;;;;;5028330;28;19938;-75
2021/04/26 06:50:54;;;;;;;;;;;5.80;68.40;;;;;;5045022;28;19929;-75
2021/04/26 06:53:24;;;;;;;;;;;5.80;69.00;;;;;;5045218;28;19916;-75
2021/04/26 06:55:50;;;;;;;;;;;5.90;68.00;;;;;;5044981;28;19979;-75
2021/04/26 06:58:15;;;;;;;;;;;6.00;68.40;;;;;;5028082;28;19917;-75
2021/04/26 07:00:41;;;;;;;;;;;6.00;67.00;;;;;;5029134;28;19939;-75
2021/04/26 07:03:06;;;;;;;;;;;6.10;69.30;;;;;;5043664;28;20388;-75
2021/04/26 07:05:34;;;;;;;;;;;6.20;67.90;;;;;;5045524;28;19920;-79
2021/04/26 07:08:01;;;;;;;;;;;6.20;67.20;;;;;;5045995;28;19929;-79
2021/04/26 07:10:26;;;;;;;;;;;6.30;65.70;;;;;;5046652;28;20678;-75
2021/04/26 07:12:52;;;;;;;;;;;6.30;66.40;;;;;;5032802;28;19917;-75
2021/04/26 07:15:20;;;;;;;;;;;6.40;65.20;;;;;;5028669;28;20062;-75
2021/04/26 07:17:45;;;;;;;;;;;6.60;64.80;;;;;;5045521;28;20007;-74
2021/04/26 07:20:14;;;;;;;;;;;6.60;64.70;;;;;;5042568;28;19946;-75
2021/04/26 07:22:40;;;;;;;;;;;6.70;65.10;;;;;;5026287;28;19948;-74
2021/04/26 07:25:08;;;;;;;;;;;6.80;65.60;;;;;;5044012;28;20023;-75
2021/04/26 07:27:33;;;;;;;;;;;6.80;64.90;;;;;;5027154;28;19975;-75
2021/04/26 07:30:02;;;;;;;;;;;6.80;64.00;;;;;;5025585;28;20514;-75
2021/04/26 07:32:30;;;;;;;;;;;6.90;65.30;;;;;;5044057;28;19924;-75
2021/04/26 07:34:57;;;;;;;;;;;7.00;64.30;;;;;;5043902;28;20058;-75
2021/04/26 07:37:25;;;;;;;;;;;7.10;64.20;;;;;;5043844;28;20102;-75
2021/04/26 07:39:50;;;;;;;;;;;7.10;63.60;;;;;;5027019;28;19917;-75
2021/04/26 07:42:16;;;;;;;;;;;7.30;64.60;;;;;;5043252;28;19943;-75
2021/04/26 07:44:44;;;;;;;;;;;7.40;63.70;;;;;;5045179;28;20574;-75
2021/04/26 07:47:09;;;;;;;;;;;7.60;63.20;;;;;;5044619;28;19920;-75
2021/04/26 07:49:35;;;;;;;;;;;7.60;64.20;;;;;;5027302;28;20382;-75
2021/04/26 07:52:00;;;;;;;;;;;7.70;61.80;;;;;;5043257;28;19924;-75
2021/04/26 07:54:26;;;;;;;;;;;7.90;61.70;;;;;;5045170;28;19920;-75
2021/04/26 07:56:59;;;;;;;;;;;8.10;63.70;;;;;;5026832;28;19940;-75
2021/04/26 07:59:24;;;;;;;;;;;8.20;62.20;;;;;;5043732;28;19920;-75
2021/04/26 08:01:50;;;;;;;;;;;8.30;61.20;;;;;;5026934;28;20261;-75
2021/04/26 08:04:16;;;;;;;;;;;8.50;60.10;;;;;;5043884;28;20346;-76
2021/04/26 08:06:41;;;;;;;;;;;8.70;63.00;;;;;;5014193;28;20281;-75
2021/04/26 08:09:07;;;;;;;;;;;8.90;61.00;;;;;;5043671;28;19920;-76
2021/04/26 08:11:33;;;;;;;;;;;9.10;63.40;;;;;;5043453;28;19928;-76
2021/04/26 08:13:58;;;;;;;;;;;9.30;60.20;;;;;;5026237;28;19921;-75
2021/04/26 08:16:26;;;;;;;;;;;9.50;60.70;;;;;;5043239;28;19921;-76
2021/04/26 08:18:52;;;;;;;;;;;9.60;62.90;;;;;;5025463;28;20123;-75
2021/04/26 08:21:17;;;;;;;;;;;9.70;61.30;;;;;;5025407;28;19921;-75
2021/04/26 08:23:43;;;;;;;;;;;10.00;58.50;;;;;;5042965;28;20350;-76
2021/04/26 08:26:09;;;;;;;;;;;10.10;58.20;;;;;;5043320;28;19928;-77
2021/04/26 08:28:37;;;;;;;;;;;10.30;58.50;;;;;;5043942;28;20069;-78
2021/04/26 08:31:06;;;;;;;;;;;10.40;58.20;;;;;;5042876;28;19963;-76
2021/04/26 08:33:32;;;;;;;;;;;10.50;56.40;;;;;;5027774;28;19942;-76
2021/04/26 08:35:57;;;;;;;;;;;10.60;57.50;;;;;;5043610;28;19921;-76
2021/04/26 08:38:23;;;;;;;;;;;10.60;54.10;;;;;;5044673;28;19917;-76
2021/04/26 08:40:51;;;;;;;;;;;10.80;58.90;;;;;;5045039;28;19982;-76
2021/04/26 08:43:16;;;;;;;;;;;10.80;56.10;;;;;;5046268;28;19970;-76
2021/04/26 08:45:42;;;;;;;;;;;11.00;59.70;;;;;;5028406;28;19971;-76
2021/04/26 08:48:07;;;;;;;;;;;11.20;58.20;;;;;;5045990;28;19920;-76
2021/04/26 08:50:33;;;;;;;;;;;11.40;55.40;;;;;;5045351;28;19923;-77
2021/04/26 08:52:59;;;;;;;;;;;11.40;52.40;;;;;;5029232;28;19921;-76
2021/04/26 08:55:24;;;;;;;;;;;11.70;54.70;;;;;;5046355;28;19971;-76
2021/04/26 08:57:53;;;;;;;;;;;11.80;54.00;;;;;;5045864;28;19924;-76
2021/04/26 09:00:19;;;;;;;;;;;11.80;51.10;;;;;;5027442;28;19978;-76
2021/04/26 09:02:47;;;;;;;;;;;11.80;53.60;;;;;;5027263;28;20648;-76
2021/04/26 09:05:22;;;;;;;;;;;12.00;55.00;;;;;;5043914;28;19931;-76
2021/04/26 09:07:51;;;;;;;;;;;12.20;53.20;;;;;;5044319;28;19929;-76
2021/04/26 09:10:16;;;;;;;;;;;12.40;52.20;;;;;;5020129;28;19917;-76
2021/04/26 09:12:42;;;;;;;;;;;12.10;47.80;;;;;;5028705;28;19931;-76
2021/04/26 09:15:08;;;;;;;;;;;12.10;49.90;;;;;;5045854;28;19931;-76
2021/04/26 09:17:38;;;;;;;;;;;12.20;52.50;;;;;;5045432;28;20016;-75
2021/04/26 09:20:19;;;;;;;;;;;12.30;50.40;;;;;;5027508;28;19916;-77
2021/04/26 09:22:54;;;;;;;;;;;12.50;52.00;;;;;;5046511;28;20035;-77
2021/04/26 09:25:23;;;;;;;;;;;12.50;49.70;;;;;;5046769;28;19932;-76
2021/04/26 09:27:53;;;;;;;;;;;12.60;49.40;;;;;;5043570;28;19989;-76
2021/04/26 09:30:38;;;;;;;;;;;12.70;52.40;;;;;;5045136;28;19924;-77
2021/04/26 09:33:34;;;;;;;;;;;12.30;47.60;;;;;;5043459;28;19931;-76
2021/04/26 09:36:02;;;;;;;;;;;12.50;47.90;;;;;;5034498;28;19988;-76
2021/04/26 09:38:29;;;;;;;;;;;12.60;47.50;;;;;;5045714;28;19927;-76
2021/04/26 09:41:09;;;;;;;;;;;12.60;46.90;;;;;;5043763;28;20365;-76
2021/04/26 09:43:34;;;;;;;;;;;12.70;48.80;;;;;;5044317;28;19956;-76
2021/04/26 09:46:00;;;;;;;;;;;12.80;49.20;;;;;;5045804;28;19995;-76
2021/04/26 09:48:29;;;;;;;;;;;12.90;45.60;;;;;;5045945;28;19931;-76
2021/04/26 09:50:55;;;;;;;;;;;13.00;47.10;;;;;;5027782;28;20787;-76
2021/04/26 09:53:21;;;;;;;;;;;13.20;49.20;;;;;;5048734;28;19971;-76
2021/04/26 09:55:47;;;;;;;;;;;13.30;50.50;;;;;;5048861;28;19916;-76
2021/04/26 09:58:15;;;;;;;;;;;13.30;49.30;;;;;;5050426;28;19921;-76
2021/04/26 10:00:43;;;;;;;;;;;13.50;47.70;;;;;;5048594;28;19979;-76
2021/04/26 10:03:08;;;;;;;;;;;13.40;44.30;;;;;;5049270;28;19927;-76
2021/04/26 10:05:34;;;;;;;;;;;12.90;42.20;;;;;;5047427;28;19916;-76
2021/04/26 10:08:00;;;;;;;;;;;12.80;44.90;;;;;;5048590;28;19929;-76
2021/04/26 10:10:25;;;;;;;;;;;13.20;49.10;;;;;;5048902;28;20411;-76
2021/04/26 10:12:51;;;;;;;;;;;13.20;44.20;;;;;;5031358;28;19932;-76
2021/04/26 10:15:16;;;;;;;;;;;13.40;47.90;;;;;;5028197;28;19917;-76
2021/04/26 10:17:45;;;;;;;;;;;13.30;43.80;;;;;;5030017;28;20013;-76
2021/04/26 10:20:11;;;;;;;;;;;13.00;43.50;;;;;;5030514;28;19928;-76
2021/04/26 10:22:43;;;;;;;;;;;13.10;44.10;;;;;;5048310;28;19921;-76
2021/04/26 10:25:09;;;;;;;;;;;13.10;47.20;;;;;;5048561;28;20361;-77
2021/04/26 10:27:37;;;;;;;;;;;12.90;42.70;;;;;;5030363;28;20456;-76
2021/04/26 10:30:16;;;;;;;;;;;13.00;45.80;;;;;;5047953;28;19921;-76
2021/04/26 10:32:58;;;;;;;;;;;13.10;44.40;;;;;;5048909;28;20006;-76
2021/04/26 10:35:24;;;;;;;;;;;13.30;44.50;;;;;;5047273;28;19927;-75
2021/04/26 10:37:50;;;;;;;;;;;13.70;42.30;;;;;;5030967;28;19924;-78
2021/04/26 10:40:18;;;;;;;;;;;13.90;46.50;;;;;;5047946;28;20574;-76
2021/04/26 10:42:43;;;;;;;;;;;13.80;43.10;;;;;;5046935;28;20278;-75
2021/04/26 10:45:12;;;;;;;;;;;13.70;44.20;;;;;;5047733;28;19920;-77
2021/04/26 10:47:40;;;;;;;;;;;13.70;43.00;;;;;;4700063;28;9999666;-77
2021/04/26 10:50:05;;;;;;;;;;;13.60;44.50;;;;;;5046604;28;19916;-76
2021/04/26 10:52:33;;;;;;;;;;;13.80;45.90;;;;;;5028860;28;19935;-77
2021/04/26 10:55:17;;;;;;;;;;;14.10;44.20;;;;;;5046563;28;20031;-77
2021/04/26 10:57:54;;;;;;;;;;;13.60;41.50;;;;;;5046571;28;19921;-76
2021/04/26 11:00:20;;;;;;;;;;;14.00;43.90;;;;;;5029265;28;20230;-76
2021/04/26 11:02:46;;;;;;;;;;;14.30;47.60;;;;;;4700003;28;10000539;-79
2021/04/26 11:05:15;;;;;;;;;;;14.30;43.70;;;;;;5028083;28;19942;-78
2021/04/26 11:07:42;;;;;;;;;;;14.40;41.20;;;;;;5016767;28;20015;-78
2021/04/26 11:10:29;;;;;;;;;;;14.10;43.40;;;;;;5044943;28;19921;-79
2021/04/26 11:12:55;;;;;;;;;;;14.20;41.70;;;;;;5046618;28;19955;-79
2021/04/26 11:15:22;;;;;;;;;;;14.30;42.80;;;;;;5047537;28;19916;-79
2021/04/26 11:17:50;;;;;;;;;;;14.40;43.90;;;;;;5029287;28;19927;-79
2021/04/26 11:20:20;;;;;;;;;;;14.70;45.50;;;;;;5046030;28;19966;-79
2021/04/26 11:22:47;;;;;;;;;;;15.00;44.20;;;;;;5046608;28;19917;-79
2021/04/26 11:25:43;;;;;;;;;;;15.10;45.40;;;;;;5028641;28;19983;-79
2021/04/26 11:28:09;;;;;;;;;;;15.00;41.00;;;;;;5034284;28;19920;-79
2021/04/26 11:30:35;;;;;;;;;;;14.90;43.10;;;;;;5027597;28;19927;-79
2021/04/26 11:33:10;;;;;;;;;;;15.20;40.40;;;;;;5028864;28;19917;-79
2021/04/26 11:35:37;;;;;;;;;;;15.20;40.40;;;;;;5029464;28;19954;-79
2021/04/26 11:38:03;;;;;;;;;;;15.10;40.00;;;;;;5045066;28;20254;-79
2021/04/26 11:40:30;;;;;;;;;;;15.60;43.20;;;;;;5047461;28;19920;-79
2021/04/26 11:43:02;;;;;;;;;;;15.70;43.30;;;;;;5027424;28;19921;-79
2021/04/26 11:45:28;;;;;;;;;;;15.80;39.70;;;;;;5047448;28;19994;-79
2021/04/26 11:47:53;;;;;;;;;;;16.00;43.30;;;;;;5046650;28;19924;-80
2021/04/26 11:50:19;;;;;;;;;;;15.70;42.10;;;;;;5047041;28;19943;-79
2021/04/26 11:52:49;;;;;;;;;;;15.80;41.40;;;;;;5046419;28;19990;-79
2021/04/26 11:55:17;;;;;;;;;;;15.50;40.10;;;;;;5044913;28;20262;-79
2021/04/26 11:57:43;;;;;;;;;;;15.50;44.70;;;;;;5028849;28;19916;-79
2021/04/26 12:00:10;;;;;;;;;;;15.80;43.30;;;;;;5026439;28;19955;-80
2021/04/26 12:02:43;;;;;;;;;;;15.90;40.90;;;;;;5047055;28;20296;-79
2021/04/26 12:05:09;;;;;;;;;;;16.10;40.00;;;;;;5048161;28;20357;-79
2021/04/26 12:07:37;;;;;;;;;;;16.20;41.50;;;;;;5045748;28;19928;-80
2021/04/26 12:10:07;;;;;;;;;;;16.60;41.00;;;;;;5045417;28;19921;-79
2021/04/26 12:12:35;;;;;;;;;;;16.70;40.30;;;;;;5045434;28;20036;-79
2021/04/26 12:15:02;;;;;;;;;;;16.10;38.10;;;;;;5044645;28;20802;-81
2021/04/26 12:17:30;;;;;;;;;;;16.80;41.30;;;;;;5046294;28;19947;-80
2021/04/26 12:19:55;;;;;;;;;;;16.80;44.20;;;;;;5046543;28;20021;-80
2021/04/26 12:22:22;;;;;;;;;;;16.80;39.10;;;;;;5025138;28;19990;-80
2021/04/26 12:24:50;;;;;;;;;;;17.10;39.30;;;;;;5044279;28;20293;-79
2021/04/26 12:27:19;;;;;;;;;;;17.10;39.30;;;;;;5045356;28;19916;-80
2021/04/26 12:29:45;;;;;;;;;;;18.00;40.40;;;;;;5028353;28;20586;-79
2021/04/26 12:32:17;;;;;;;;;;;17.90;40.60;;;;;;5045154;28;19935;-79
2021/04/26 12:34:49;;;;;;;;;;;18.00;38.20;;;;;;5045611;28;19917;-80
2021/04/26 12:37:17;;;;;;;;;;;17.10;34.70;;;;;;5044753;28;21719;-79
2021/04/26 12:39:42;;;;;;;;;;;17.40;37.80;;;;;;5025492;28;19956;-78
2021/04/26 12:42:09;;;;;;;;;;;17.20;35.00;;;;;;5044885;28;20313;-77
2021/04/26 12:44:34;;;;;;;;;;;17.30;36.40;;;;;;5025155;28;19913;-77
2021/04/26 12:47:14;;;;;;;;;;;17.70;38.70;;;;;;5042628;28;20002;-77
2021/04/26 12:49:39;;;;;;;;;;;18.00;38.30;;;;;;5044893;28;19920;-77
2021/04/26 12:52:12;;;;;;;;;;;17.80;36.30;;;;;;5025678;28;19924;-77
2021/04/26 12:54:53;;;;;;;;;;;18.20;37.30;;;;;;5044963;28;19917;-77
2021/04/26 12:57:25;;;;;;;;;;;18.90;38.70;;;;;;5027532;28;20381;-78
2021/04/26 12:59:50;;;;;;;;;;;19.40;35.40;;;;;;5044990;28;19916;-76
2021/04/26 13:02:25;;;;;;;;;;;19.00;37.20;;;;;;5027299;28;19924;-77
2021/04/26 13:04:50;;;;;;;;;;;19.10;37.20;;;;;;5045052;28;19921;-77
2021/04/26 13:07:17;;;;;;;;;;;19.50;37.00;;;;;;5026948;28;19933;-77
2021/04/26 13:09:42;;;;;;;;;;;18.90;35.40;;;;;;5025609;28;19990;-75
2021/04/26 13:12:08;;;;;;;;;;;18.80;34.00;;;;;;5044354;28;20345;-76
2021/04/26 13:14:35;;;;;;;;;;;18.70;36.40;;;;;;5027104;28;19920;-76
2021/04/26 13:17:12;;;;;;;;;;;19.10;40.40;;;;;;5044313;28;19928;-78
2021/04/26 13:19:42;;;;;;;;;;;19.00;35.10;;;;;;5044868;28;19916;-75
2021/04/26 13:22:28;;;;;;;;;;;18.60;35.50;;;;;;5045213;28;19917;-75
2021/04/26 13:24:54;;;;;;;;;;;18.20;37.30;;;;;;5043634;28;19978;-75
2021/04/26 13:27:20;;;;;;;;;;;17.80;36.60;;;;;;5026084;28;19947;-75
2021/04/26 13:29:52;;;;;;;;;;;17.50;36.90;;;;;;5050085;28;20437;-75
2021/04/26 13:32:17;;;;;;;;;;;17.80;39.60;;;;;;5031632;28;19921;-75
2021/04/26 13:34:46;;;;;;;;;;;17.70;37.60;;;;;;5048364;28;19948;-76
2021/04/26 13:37:12;;;;;;;;;;;17.40;35.80;;;;;;5047703;28;20756;-76
2021/04/26 13:39:37;;;;;;;;;;;17.00;36.40;;;;;;5051964;28;19923;-76
2021/04/26 13:42:05;;;;;;;;;;;17.20;37.00;;;;;;5050368;28;19920;-76
2021/04/26 13:44:31;;;;;;;;;;;17.10;38.50;;;;;;5050789;28;20520;-76
2021/04/26 13:46:56;;;;;;;;;;;16.70;37.30;;;;;;5032726;28;19917;-75
2021/04/26 13:49:22;;;;;;;;;;;16.70;37.10;;;;;;5031482;28;21706;-75
2021/04/26 13:51:49;;;;;;;;;;;17.00;39.20;;;;;;5051008;28;19927;-75
2021/04/26 13:54:14;;;;;;;;;;;16.10;35.90;;;;;;5029591;28;19932;-75
2021/04/26 13:56:40;;;;;;;;;;;15.70;37.10;;;;;;5049376;28;19920;-76
2021/04/26 13:59:09;;;;;;;;;;;15.90;39.60;;;;;;5031498;28;19970;-76
2021/04/26 14:01:35;;;;;;;;;;;16.00;40.00;;;;;;5048273;28;19916;-76
2021/04/26 14:04:00;;;;;;;;;;;16.10;39.90;;;;;;5047922;28;21687;-75
2021/04/26 14:06:26;;;;;;;;;;;16.10;38.20;;;;;;5030836;28;20358;-75
2021/04/26 14:08:54;;;;;;;;;;;16.30;41.60;;;;;;5047000;28;20239;-75
2021/04/26 14:11:22;;;;;;;;;;;16.10;41.30;;;;;;5029058;28;19925;-75
2021/04/26 14:13:50;;;;;;;;;;;16.20;41.10;;;;;;5047145;28;19956;-75
2021/04/26 14:16:16;;;;;;;;;;;16.50;39.20;;;;;;5046549;28;19967;-75
2021/04/26 14:18:41;;;;;;;;;;;16.20;37.60;;;;;;5028569;28;19921;-75
2021/04/26 14:21:07;;;;;;;;;;;16.20;38.20;;;;;;5047355;28;20948;-75
2021/04/26 14:23:33;;;;;;;;;;;16.40;39.10;;;;;;5048442;28;19926;-76